sensor_id;sensor_type;location;lat;lon;timestamp;pressure;altitude;pressure_sealevel;temperature;humidity
56334;BME280;42240;53.626;55.886;2023-09-19T00:01:00;75908.28;;;-145.10;100.00
56334;BME280;42240;53.626;55.886;2023-09-19T00:02:33;75918.16;;;-145.10;100.00
56334;BME280;42240;53.626;55.886;2023-09-19T00:04:09;75932.00;;;-145.10;100.00
56334;BME280;42240;53.626;55.886;2023-09-19T00:05:43;75922.13;;;-145.10;100.00
56334;BME280;42240;53.626;55.886;2023-09-19T00:07:18;75912.22;;;-145.10;100.00
56334;BME280;42240;53.626;55.886;2023-09-19T00:08:54;75906.28;;;-145.10;100.00
56334;BME280;42240;53.626;55.886;2023-09-19T00:10:29;75920.13;;;-145.10;100.00
56334;BME280;42240;53.626;55.886;2023-09-19T00:12:05;75943.88;;;-145.10;100.00
56334;BME280;42240;53.626;55.886;2023-09-19T00:13:39;75947.81;;;-145.10;100.00
56334;BME280;42240;53.626;55.886;2023-09-19T00:15:13;75955.72;;;-145.10;100.00
56334;BME280;42240;53.626;55.886;2023-09-19T00:16:46;75959.69;;;-145.10;100.00
56334;BME280;42240;53.626;55.886;2023-09-19T00:18:20;75939.91;;;-145.10;100.00
56334;BME280;42240;53.626;55.886;2023-09-19T00:19:55;75926.06;;;-145.10;100.00
56334;BME280;42240;53.626;55.886;2023-09-19T00:21:31;75908.28;;;-145.10;100.00
56334;BME280;42240;53.626;55.886;2023-09-19T00:23:05;75916.19;;;-145.10;100.00
56334;BME280;42240;53.626;55.886;2023-09-19T00:24:38;75918.16;;;-145.10;100.00
56334;BME280;42240;53.626;55.886;2023-09-19T00:26:11;75924.09;;;-145.10;100.00
56334;BME280;42240;53.626;55.886;2023-09-19T00:27:49;75920.13;;;-145.10;100.00
56334;BME280;42240;53.626;55.886;2023-09-19T00:29:25;75906.28;;;-145.10;100.00
56334;BME280;42240;53.626;55.886;2023-09-19T00:31:02;75904.31;;;-145.10;100.00
56334;BME280;42240;53.626;55.886;2023-09-19T00:32:36;75894.44;;;-145.10;100.00
56334;BME280;42240;53.626;55.886;2023-09-19T00:34:13;75884.56;;;-145.10;100.00
56334;BME280;42240;53.626;55.886;2023-09-19T00:35:51;75898.38;;;-145.10;100.00
56334;BME280;42240;53.626;55.886;2023-09-19T00:37:25;75920.13;;;-145.10;100.00
56334;BME280;42240;53.626;55.886;2023-09-19T00:38:58;75918.16;;;-145.10;100.00
56334;BME280;42240;53.626;55.886;2023-09-19T00:40:32;75926.06;;;-145.10;100.00
56334;BME280;42240;53.626;55.886;2023-09-19T00:42:06;75924.09;;;-145.10;100.00
56334;BME280;42240;53.626;55.886;2023-09-19T00:43:41;75918.16;;;-145.10;100.00
56334;BME280;42240;53.626;55.886;2023-09-19T00:45:16;75918.16;;;-145.10;100.00
56334;BME280;42240;53.626;55.886;2023-09-19T00:46:50;75918.16;;;-145.10;100.00
56334;BME280;42240;53.626;55.886;2023-09-19T00:48:25;75910.25;;;-145.10;100.00
56334;BME280;42240;53.626;55.886;2023-09-19T00:50:00;75914.19;;;-145.10;100.00
56334;BME280;42240;53.626;55.886;2023-09-19T00:51:34;75916.19;;;-145.10;100.00
56334;BME280;42240;53.626;55.886;2023-09-19T00:53:09;75916.19;;;-145.10;100.00
56334;BME280;42240;53.626;55.886;2023-09-19T00:54:43;75918.16;;;-145.10;100.00
56334;BME280;42240;53.626;55.886;2023-09-19T00:56:16;75943.88;;;-145.10;100.00
56334;BME280;42240;53.626;55.886;2023-09-19T00:57:52;75959.69;;;-145.10;100.00
56334;BME280;42240;53.626;55.886;2023-09-19T00:59:25;75965.59;;;-145.10;100.00
56334;BME280;42240;53.626;55.886;2023-09-19T01:00:58;75975.50;;;-145.10;100.00
56334;BME280;42240;53.626;55.886;2023-09-19T01:02:32;76007.13;;;-145.10;100.00
56334;BME280;42240;53.626;55.886;2023-09-19T01:04:06;75975.50;;;-145.10;100.00
56334;BME280;42240;53.626;55.886;2023-09-19T01:05:39;76011.09;;;-145.10;100.00
56334;BME280;42240;53.626;55.886;2023-09-19T01:07:13;75991.31;;;-145.10;100.00
56334;BME280;42240;53.626;55.886;2023-09-19T01:08:47;75993.28;;;-145.10;100.00
56334;BME280;42240;53.626;55.886;2023-09-19T01:10:21;75993.28;;;-145.10;100.00
56334;BME280;42240;53.626;55.886;2023-09-19T01:12:02;76019.00;;;-145.10;100.00
56334;BME280;42240;53.626;55.886;2023-09-19T01:13:44;76015.03;;;-145.10;100.00
56334;BME280;42240;53.626;55.886;2023-09-19T01:17:05;76022.94;;;-145.10;100.00
56334;BME280;42240;53.626;55.886;2023-09-19T01:20:50;76015.03;;;-145.10;100.00
56334;BME280;42240;53.626;55.886;2023-09-19T01:22:37;76022.94;;;-145.10;100.00
56334;BME280;42240;53.626;55.886;2023-09-19T01:24:41;76022.94;;;-145.10;100.00
56334;BME280;42240;53.626;55.886;2023-09-19T01:30:17;76064.47;;;-145.10;100.00
56334;BME280;42240;53.626;55.886;2023-09-19T01:31:59;76066.44;;;-145.10;100.00
56334;BME280;42240;53.626;55.886;2023-09-19T01:34:01;76054.56;;;-145.10;100.00
56334;BME280;42240;53.626;55.886;2023-09-19T01:35:39;76068.41;;;-145.10;100.00
56334;BME280;42240;53.626;55.886;2023-09-19T01:37:12;76060.50;;;-145.10;100.00
56334;BME280;42240;53.626;55.886;2023-09-19T01:38:45;76058.53;;;-145.10;100.00
56334;BME280;42240;53.626;55.886;2023-09-19T01:40:20;76062.50;;;-145.10;100.00
56334;BME280;42240;53.626;55.886;2023-09-19T01:42:02;76068.41;;;-145.10;100.00
56334;BME280;42240;53.626;55.886;2023-09-19T01:43:42;76070.41;;;-145.10;100.00
56334;BME280;42240;53.626;55.886;2023-09-19T01:47:34;76070.41;;;-145.10;100.00
56334;BME280;42240;53.626;55.886;2023-09-19T01:49:31;76082.25;;;-145.10;100.00
56334;BME280;42240;53.626;55.886;2023-09-19T01:51:09;76086.22;;;-145.10;100.00
56334;BME280;42240;53.626;55.886;2023-09-19T01:52:59;76074.34;;;-145.10;100.00
56334;BME280;42240;53.626;55.886;2023-09-19T01:54:41;76105.97;;;-145.10;100.00
56334;BME280;42240;53.626;55.886;2023-09-19T01:56:54;76072.38;;;-145.10;100.00
56334;BME280;42240;53.626;55.886;2023-09-19T01:58:45;76080.28;;;-145.10;100.00
56334;BME280;42240;53.626;55.886;2023-09-19T02:00:20;76105.97;;;-145.10;100.00
56334;BME280;42240;53.626;55.886;2023-09-19T02:01:55;76086.22;;;-145.10;100.00
56334;BME280;42240;53.626;55.886;2023-09-19T02:03:29;76090.16;;;-145.10;100.00
56334;BME280;42240;53.626;55.886;2023-09-19T02:05:04;76078.31;;;-145.10;100.00
56334;BME280;42240;53.626;55.886;2023-09-19T02:06:42;76066.44;;;-145.10;100.00
56334;BME280;42240;53.626;55.886;2023-09-19T02:08:17;76082.25;;;-145.10;100.00
56334;BME280;42240;53.626;55.886;2023-09-19T02:09:51;76088.19;;;-145.10;100.00
56334;BME280;42240;53.626;55.886;2023-09-19T02:11:24;76080.28;;;-145.10;100.00
56334;BME280;42240;53.626;55.886;2023-09-19T02:12:57;76098.06;;;-145.10;100.00
56334;BME280;42240;53.626;55.886;2023-09-19T02:14:32;76062.50;;;-145.10;100.00
56334;BME280;42240;53.626;55.886;2023-09-19T02:16:09;76048.66;;;-145.10;100.00
56334;BME280;42240;53.626;55.886;2023-09-19T02:17:44;76034.81;;;-145.10;100.00
56334;BME280;42240;53.626;55.886;2023-09-19T02:19:19;76026.91;;;-145.10;100.00
56334;BME280;42240;53.626;55.886;2023-09-19T02:20:54;76024.91;;;-145.10;100.00
56334;BME280;42240;53.626;55.886;2023-09-19T02:22:29;76030.84;;;-145.10;100.00
56334;BME280;42240;53.626;55.886;2023-09-19T02:24:02;76020.97;;;-145.10;100.00
56334;BME280;42240;53.626;55.886;2023-09-19T02:25:36;76022.94;;;-145.10;100.00
56334;BME280;42240;53.626;55.886;2023-09-19T02:27:12;76030.84;;;-145.10;100.00
56334;BME280;42240;53.626;55.886;2023-09-19T02:28:46;76017.00;;;-145.10;100.00
56334;BME280;42240;53.626;55.886;2023-09-19T02:30:20;76048.66;;;-145.10;100.00
56334;BME280;42240;53.626;55.886;2023-09-19T02:31:55;75922.13;;;-145.10;100.00
56334;BME280;42240;53.626;55.886;2023-09-19T02:33:28;75761.97;;;-145.10;100.00
56334;BME280;42240;53.626;55.886;2023-09-19T02:35:06;75625.56;;;-145.10;100.00
56334;BME280;42240;53.626;55.886;2023-09-19T02:36:39;75578.13;;;-145.10;100.00
56334;BME280;42240;53.626;55.886;2023-09-19T02:38:12;75572.19;;;-145.10;100.00
56334;BME280;42240;53.626;55.886;2023-09-19T02:39:45;75524.75;;;-145.10;100.00
56334;BME280;42240;53.626;55.886;2023-09-19T02:41:18;75471.38;;;-145.10;100.00
56334;BME280;42240;53.626;55.886;2023-09-19T02:42:55;75469.38;;;-145.10;100.00
56334;BME280;42240;53.626;55.886;2023-09-19T02:44:28;75497.06;;;-145.10;100.00
56334;BME280;42240;53.626;55.886;2023-09-19T02:46:01;75457.53;;;-145.10;100.00
56334;BME280;42240;53.626;55.886;2023-09-19T02:47:35;75374.50;;;-145.10;100.00
56334;BME280;42240;53.626;55.886;2023-09-19T02:49:08;75293.44;;;-145.10;100.00
56334;BME280;42240;53.626;55.886;2023-09-19T02:50:43;75204.50;;;-145.10;100.00
56334;BME280;42240;53.626;55.886;2023-09-19T02:52:16;75161.00;;;-145.10;100.00
56334;BME280;42240;53.626;55.886;2023-09-19T02:53:52;75089.84;;;-145.10;100.00
56334;BME280;42240;53.626;55.886;2023-09-19T02:55:25;75058.22;;;-145.10;100.00
56334;BME280;42240;53.626;55.886;2023-09-19T02:56:59;75016.72;;;-145.10;100.00
56334;BME280;42240;53.626;55.886;2023-09-19T02:58:33;74953.47;;;-145.10;100.00
56334;BME280;42240;53.626;55.886;2023-09-19T03:00:09;74947.53;;;-145.10;100.00
56334;BME280;42240;53.626;55.886;2023-09-19T03:01:45;74949.50;;;-145.10;100.00
56334;BME280;42240;53.626;55.886;2023-09-19T03:03:21;74908.00;;;-145.10;100.00
56334;BME280;42240;53.626;55.886;2023-09-19T03:04:56;74880.34;;;-145.10;100.00
56334;BME280;42240;53.626;55.886;2023-09-19T03:06:32;74923.81;;;-145.10;100.00
56334;BME280;42240;53.626;55.886;2023-09-19T03:08:05;74900.09;;;-145.10;100.00
56334;BME280;42240;53.626;55.886;2023-09-19T03:09:39;74888.25;;;-145.10;100.00
56334;BME280;42240;53.626;55.886;2023-09-19T03:11:13;74825.00;;;-145.10;100.00
56334;BME280;42240;53.626;55.886;2023-09-19T03:12:50;74741.97;;;-145.10;100.00
56334;BME280;42240;53.626;55.886;2023-09-19T03:14:24;74773.59;;;-145.10;100.00
56334;BME280;42240;53.626;55.886;2023-09-19T03:15:58;74765.69;;;-145.10;100.00
56334;BME280;42240;53.626;55.886;2023-09-19T03:17:37;74745.94;;;-145.10;100.00
56334;BME280;42240;53.626;55.886;2023-09-19T03:19:10;74698.50;;;-145.10;100.00
56334;BME280;42240;53.626;55.886;2023-09-19T03:20:44;74696.53;;;-145.10;100.00
56334;BME280;42240;53.626;55.886;2023-09-19T03:22:28;74704.44;;;-145.10;100.00
56334;BME280;42240;53.626;55.886;2023-09-19T03:24:01;74712.34;;;-145.10;100.00
56334;BME280;42240;53.626;55.886;2023-09-19T03:25:34;74619.44;;;-145.10;100.00
56334;BME280;42240;53.626;55.886;2023-09-19T03:27:12;74550.25;;;-145.10;100.00
56334;BME280;42240;53.626;55.886;2023-09-19T03:28:47;74514.69;;;-145.10;100.00
56334;BME280;42240;53.626;55.886;2023-09-19T03:30:20;74471.22;;;-145.10;100.00
56334;BME280;42240;53.626;55.886;2023-09-19T03:31:54;74461.31;;;-145.10;100.00
56334;BME280;42240;53.626;55.886;2023-09-19T03:33:27;74409.94;;;-145.10;100.00
56334;BME280;42240;53.626;55.886;2023-09-19T03:35:00;74473.19;;;-145.10;100.00
56334;BME280;42240;53.626;55.886;2023-09-19T03:36:33;74427.72;;;-145.10;100.00
56334;BME280;42240;53.626;55.886;2023-09-19T03:38:05;74338.78;;;-145.10;100.00
56334;BME280;42240;53.626;55.886;2023-09-19T03:39:38;74293.34;;;-145.10;100.00
56334;BME280;42240;53.626;55.886;2023-09-19T03:41:12;74396.09;;;-145.10;100.00
56334;BME280;42240;53.626;55.886;2023-09-19T03:42:47;74447.50;;;-145.10;100.00
56334;BME280;42240;53.626;55.886;2023-09-19T03:44:20;74508.75;;;-145.10;100.00
56334;BME280;42240;53.626;55.886;2023-09-19T03:45:54;74544.34;;;-145.10;100.00
56334;BME280;42240;53.626;55.886;2023-09-19T03:47:28;74528.53;;;-145.10;100.00
56334;BME280;42240;53.626;55.886;2023-09-19T03:49:03;74427.72;;;-145.10;100.00
56334;BME280;42240;53.626;55.886;2023-09-19T03:51:06;74443.53;;;-145.10;100.00
56334;BME280;42240;53.626;55.886;2023-09-19T03:52:40;74358.56;;;-145.10;100.00
56334;BME280;42240;53.626;55.886;2023-09-19T03:54:14;74319.03;;;-145.10;100.00
56334;BME280;42240;53.626;55.886;2023-09-19T03:55:46;74307.19;;;-145.10;100.00
56334;BME280;42240;53.626;55.886;2023-09-19T03:57:21;74243.94;;;-145.10;100.00
56334;BME280;42240;53.626;55.886;2023-09-19T03:58:55;74214.28;;;-145.10;100.00
56334;BME280;42240;53.626;55.886;2023-09-19T04:00:29;74224.19;;;-145.10;99.22
56334;BME280;42240;53.626;55.886;2023-09-19T04:02:03;74263.69;;;-145.10;100.00
56334;BME280;42240;53.626;55.886;2023-09-19T04:03:37;74326.94;;;-145.10;100.00
56334;BME280;42240;53.626;55.886;2023-09-19T04:05:20;74285.44;;;-145.10;100.00
56334;BME280;42240;53.626;55.886;2023-09-19T04:06:54;74216.28;;;-145.10;100.00
56334;BME280;42240;53.626;55.886;2023-09-19T04:08:27;74236.03;;;-145.10;98.72
56334;BME280;42240;53.626;55.886;2023-09-19T04:10:00;74257.78;;;-145.10;98.87
56334;BME280;42240;53.626;55.886;2023-09-19T04:11:36;74236.03;;;-145.10;100.00
56334;BME280;42240;53.626;55.886;2023-09-19T04:13:10;74204.41;;;-145.10;100.00
56334;BME280;42240;53.626;55.886;2023-09-19T04:14:43;74212.31;;;-145.10;95.79
56334;BME280;42240;53.626;55.886;2023-09-19T04:16:17;74168.84;;;-145.10;97.23
56334;BME280;42240;53.626;55.886;2023-09-19T04:17:51;74234.06;;;-145.10;95.76
56334;BME280;42240;53.626;55.886;2023-09-19T04:19:25;74234.06;;;-145.10;97.24
56334;BME280;42240;53.626;55.886;2023-09-19T04:20:59;74180.69;;;-145.10;98.52
56334;BME280;42240;53.626;55.886;2023-09-19T04:22:38;74156.97;;;-145.10;95.53
56334;BME280;42240;53.626;55.886;2023-09-19T04:24:12;74054.22;;;-145.10;90.83
56334;BME280;42240;53.626;55.886;2023-09-19T04:25:56;73941.59;;;-145.10;86.88
56334;BME280;42240;53.626;55.886;2023-09-19T04:27:30;73994.94;;;-145.10;87.10
56334;BME280;42240;53.626;55.886;2023-09-19T04:29:06;73973.19;;;-145.10;85.47
56334;BME280;42240;53.626;55.886;2023-09-19T04:30:40;73957.41;;;-145.10;85.77
56334;BME280;42240;53.626;55.886;2023-09-19T04:32:16;73915.91;;;-145.10;83.92
56334;BME280;42240;53.626;55.886;2023-09-19T04:33:53;73983.09;;;-145.10;83.53
56334;BME280;42240;53.626;55.886;2023-09-19T04:35:27;73947.50;;;-145.10;81.51
56334;BME280;42240;53.626;55.886;2023-09-19T04:37:04;73848.72;;;-145.10;82.57
56334;BME280;42240;53.626;55.886;2023-09-19T04:38:37;73842.78;;;-145.10;79.54
56334;BME280;42240;53.626;55.886;2023-09-19T04:40:11;73836.84;;;-145.10;76.25
56334;BME280;42240;53.626;55.886;2023-09-19T04:41:51;73815.13;;;-145.10;76.91
56334;BME280;42240;53.626;55.886;2023-09-19T04:43:24;73759.78;;;-145.10;73.35
56334;BME280;42240;53.626;55.886;2023-09-19T04:44:58;73726.19;;;-145.10;72.55
56334;BME280;42240;53.626;55.886;2023-09-19T04:46:35;73686.69;;;-145.10;74.35
56334;BME280;42240;53.626;55.886;2023-09-19T04:48:08;73700.50;;;-145.10;68.84
56334;BME280;42240;53.626;55.886;2023-09-19T04:49:41;73686.69;;;-145.10;71.47
56334;BME280;42240;53.626;55.886;2023-09-19T04:51:15;73708.41;;;-145.10;69.61
56334;BME280;42240;53.626;55.886;2023-09-19T04:52:50;73749.91;;;-145.10;72.10
56334;BME280;42240;53.626;55.886;2023-09-19T04:54:24;73674.81;;;-145.10;71.15
56334;BME280;42240;53.626;55.886;2023-09-19T04:55:57;73635.31;;;-145.10;69.08
56334;BME280;42240;53.626;55.886;2023-09-19T04:57:31;73686.69;;;-145.10;66.72
56334;BME280;42240;53.626;55.886;2023-09-19T04:59:05;73662.97;;;-145.10;67.51
56334;BME280;42240;53.626;55.886;2023-09-19T05:00:40;73661.00;;;-145.10;66.81
56334;BME280;42240;53.626;55.886;2023-09-19T05:02:13;73576.03;;;-145.10;66.04
56334;BME280;42240;53.626;55.886;2023-09-19T05:03:47;73655.06;;;-145.10;69.91
56334;BME280;42240;53.626;55.886;2023-09-19T05:05:25;73704.47;;;-145.10;66.07
56334;BME280;42240;53.626;55.886;2023-09-19T05:06:59;73631.34;;;-145.10;68.15
56334;BME280;42240;53.626;55.886;2023-09-19T05:08:34;73589.84;;;-145.10;66.60
56334;BME280;42240;53.626;55.886;2023-09-19T05:10:08;73556.25;;;-145.10;65.73
56334;BME280;42240;53.626;55.886;2023-09-19T05:11:43;73579.97;;;-145.10;64.68
56334;BME280;42240;53.626;55.886;2023-09-19T05:13:17;73599.72;;;-145.10;64.45
56334;BME280;42240;53.626;55.886;2023-09-19T05:14:50;73633.31;;;-145.10;63.58
56334;BME280;42240;53.626;55.886;2023-09-19T05:16:24;73651.09;;;-145.10;64.56
56334;BME280;42240;53.626;55.886;2023-09-19T05:17:58;73635.31;;;-145.10;66.83
56334;BME280;42240;53.626;55.886;2023-09-19T05:19:31;73595.78;;;-145.10;64.25
56334;BME280;42240;53.626;55.886;2023-09-19T05:21:05;73562.19;;;-145.10;64.92
56334;BME280;42240;53.626;55.886;2023-09-19T05:22:39;73548.38;;;-145.10;64.38
56334;BME280;42240;53.626;55.886;2023-09-19T05:24:14;73538.47;;;-145.10;65.28
56334;BME280;42240;53.626;55.886;2023-09-19T05:25:47;73613.56;;;-145.10;65.44
56334;BME280;42240;53.626;55.886;2023-09-19T05:27:21;73536.50;;;-145.10;63.10
56334;BME280;42240;53.626;55.886;2023-09-19T05:28:58;73504.91;;;-145.10;63.58
56334;BME280;42240;53.626;55.886;2023-09-19T05:30:31;73493.03;;;-145.10;62.52
56334;BME280;42240;53.626;55.886;2023-09-19T05:32:06;73497.00;;;-145.10;60.79
56334;BME280;42240;53.626;55.886;2023-09-19T05:33:39;73554.28;;;-145.10;64.08
56334;BME280;42240;53.626;55.886;2023-09-19T05:35:13;73506.88;;;-145.10;61.80
56334;BME280;42240;53.626;55.886;2023-09-19T05:36:46;73530.56;;;-145.10;58.96
56334;BME280;42240;53.626;55.886;2023-09-19T05:38:21;73601.72;;;-145.10;62.44
56334;BME280;42240;53.626;55.886;2023-09-19T05:39:55;73599.72;;;-145.10;64.63
56334;BME280;42240;53.626;55.886;2023-09-19T05:41:29;73546.38;;;-145.10;63.09
56334;BME280;42240;53.626;55.886;2023-09-19T05:43:04;73518.72;;;-145.10;62.03
56334;BME280;42240;53.626;55.886;2023-09-19T05:44:40;73489.09;;;-145.10;63.18
56334;BME280;42240;53.626;55.886;2023-09-19T05:46:13;73495.00;;;-145.10;61.43
56334;BME280;42240;53.626;55.886;2023-09-19T05:47:50;73453.53;;;-145.10;59.90
56334;BME280;42240;53.626;55.886;2023-09-19T05:49:24;73572.06;;;-145.10;59.87
56334;BME280;42240;53.626;55.886;2023-09-19T05:50:58;73623.44;;;-145.10;59.14
56334;BME280;42240;53.626;55.886;2023-09-19T05:52:31;73534.53;;;-145.10;57.16
56334;BME280;42240;53.626;55.886;2023-09-19T05:54:05;73621.47;;;-145.10;59.97
56334;BME280;42240;53.626;55.886;2023-09-19T05:55:39;73680.75;;;-145.10;58.30
56334;BME280;42240;53.626;55.886;2023-09-19T05:57:12;73664.94;;;-145.10;60.78
56334;BME280;42240;53.626;55.886;2023-09-19T05:58:46;73613.56;;;-145.10;59.56
56334;BME280;42240;53.626;55.886;2023-09-19T06:00:22;73506.88;;;-145.10;58.58
56334;BME280;42240;53.626;55.886;2023-09-19T06:01:58;73583.94;;;-145.10;60.44
56334;BME280;42240;53.626;55.886;2023-09-19T06:03:32;73583.94;;;-145.10;59.68
56334;BME280;42240;53.626;55.886;2023-09-19T06:05:06;73579.97;;;-145.10;61.16
56334;BME280;42240;53.626;55.886;2023-09-19T06:06:43;73534.53;;;-145.10;58.84
56334;BME280;42240;53.626;55.886;2023-09-19T06:08:17;73532.56;;;-145.10;55.27
56334;BME280;42240;53.626;55.886;2023-09-19T06:09:51;73591.84;;;-145.10;54.50
56334;BME280;42240;53.626;55.886;2023-09-19T06:11:26;73611.59;;;-145.10;60.09
56334;BME280;42240;53.626;55.886;2023-09-19T06:13:04;73589.84;;;-145.10;55.17
56334;BME280;42240;53.626;55.886;2023-09-19T06:14:39;73578.00;;;-145.10;54.36
56334;BME280;42240;53.626;55.886;2023-09-19T06:16:16;73696.56;;;-145.10;54.46
56334;BME280;42240;53.626;55.886;2023-09-19T06:17:54;73742.00;;;-145.10;59.10
56334;BME280;42240;53.626;55.886;2023-09-19T06:19:27;73767.69;;;-145.10;56.70
56334;BME280;42240;53.626;55.886;2023-09-19T06:21:01;73791.41;;;-145.10;62.42
56334;BME280;42240;53.626;55.886;2023-09-19T06:22:44;73858.59;;;-145.10;61.35
56334;BME280;42240;53.626;55.886;2023-09-19T06:24:21;73872.41;;;-145.10;65.09
56334;BME280;42240;53.626;55.886;2023-09-19T06:26:14;73939.59;;;-145.10;65.10
56334;BME280;42240;53.626;55.886;2023-09-19T06:27:49;73957.41;;;-145.10;65.15
56334;BME280;42240;53.626;55.886;2023-09-19T06:29:25;73941.59;;;-145.10;65.66
56334;BME280;42240;53.626;55.886;2023-09-19T06:30:58;73943.56;;;-145.10;65.22
56334;BME280;42240;53.626;55.886;2023-09-19T06:32:32;74020.63;;;-145.10;68.87
56334;BME280;42240;53.626;55.886;2023-09-19T06:34:06;73945.53;;;-145.10;72.81
56334;BME280;42240;53.626;55.886;2023-09-19T06:35:41;73892.19;;;-145.10;72.77
56334;BME280;42240;53.626;55.886;2023-09-19T06:37:16;73927.75;;;-145.10;73.21
56334;BME280;42240;53.626;55.886;2023-09-19T06:38:49;73975.19;;;-145.10;71.64
56334;BME280;42240;53.626;55.886;2023-09-19T06:40:24;74020.63;;;-145.10;71.82
56334;BME280;42240;53.626;55.886;2023-09-19T06:41:58;74006.78;;;-145.10;77.03
56334;BME280;42240;53.626;55.886;2023-09-19T06:43:34;74066.06;;;-145.10;78.28
56334;BME280;42240;53.626;55.886;2023-09-19T06:45:08;74056.19;;;-145.10;76.58
56334;BME280;42240;53.626;55.886;2023-09-19T06:46:44;74014.69;;;-145.10;75.28
56334;BME280;42240;53.626;55.886;2023-09-19T06:48:19;74010.75;;;-145.10;75.76
56334;BME280;42240;53.626;55.886;2023-09-19T06:49:54;74022.59;;;-145.10;74.62
56334;BME280;42240;53.626;55.886;2023-09-19T06:51:27;74123.38;;;-145.10;72.18
56334;BME280;42240;53.626;55.886;2023-09-19T06:53:00;74099.66;;;-145.10;76.89
56334;BME280;42240;53.626;55.886;2023-09-19T06:54:35;74164.88;;;-145.10;79.22
56334;BME280;42240;53.626;55.886;2023-09-19T06:56:09;74137.22;;;-145.10;82.63
56334;BME280;42240;53.626;55.886;2023-09-19T06:57:43;74172.78;;;-145.10;79.71
56334;BME280;42240;53.626;55.886;2023-09-19T06:59:17;74135.25;;;-145.10;84.26
56334;BME280;42240;53.626;55.886;2023-09-19T07:00:50;74160.94;;;-145.10;82.08
56334;BME280;42240;53.626;55.886;2023-09-19T07:02:23;74156.97;;;-145.10;80.41
56334;BME280;42240;53.626;55.886;2023-09-19T07:03:56;74238.00;;;-145.10;81.40
56334;BME280;42240;53.626;55.886;2023-09-19T07:05:34;74293.34;;;-145.10;86.39
56334;BME280;42240;53.626;55.886;2023-09-19T07:07:12;74313.09;;;-145.10;86.65
56334;BME280;42240;53.626;55.886;2023-09-19T07:08:46;74303.22;;;-145.10;88.49
56334;BME280;42240;53.626;55.886;2023-09-19T07:10:20;74313.09;;;-145.10;88.91
56334;BME280;42240;53.626;55.886;2023-09-19T07:11:57;74301.25;;;-145.10;85.49
56334;BME280;42240;53.626;55.886;2023-09-19T07:13:30;74370.41;;;-145.10;87.76
56334;BME280;42240;53.626;55.886;2023-09-19T07:15:05;74437.63;;;-145.10;87.96
56334;BME280;42240;53.626;55.886;2023-09-19T07:16:40;74490.97;;;-145.10;92.36
56334;BME280;42240;53.626;55.886;2023-09-19T07:18:17;74481.09;;;-145.10;99.96
56334;BME280;42240;53.626;55.886;2023-09-19T07:19:51;74429.72;;;-145.10;100.00
56334;BME280;42240;53.626;55.886;2023-09-19T07:21:24;74406.00;;;-145.10;97.75
56334;BME280;42240;53.626;55.886;2023-09-19T07:22:58;74354.59;;;-145.10;97.60
56334;BME280;42240;53.626;55.886;2023-09-19T07:24:35;74326.94;;;-145.10;95.87
56334;BME280;42240;53.626;55.886;2023-09-19T07:26:13;74303.22;;;-145.10;95.24
56334;BME280;42240;53.626;55.886;2023-09-19T07:27:46;74330.88;;;-145.10;91.59
56334;BME280;42240;53.626;55.886;2023-09-19T07:29:20;74324.97;;;-145.10;90.05
56334;BME280;42240;53.626;55.886;2023-09-19T07:30:54;74326.94;;;-145.10;89.34
56334;BME280;42240;53.626;55.886;2023-09-19T07:32:28;74319.03;;;-145.10;92.87
56334;BME280;42240;53.626;55.886;2023-09-19T07:34:02;74334.84;;;-145.10;91.89
56334;BME280;42240;53.626;55.886;2023-09-19T07:35:39;74275.56;;;-145.10;92.04
56334;BME280;42240;53.626;55.886;2023-09-19T07:37:15;74267.66;;;-145.10;91.28
56334;BME280;42240;53.626;55.886;2023-09-19T07:38:52;74338.78;;;-145.10;91.87
56334;BME280;42240;53.626;55.886;2023-09-19T07:40:25;74380.28;;;-145.10;93.29
56334;BME280;42240;53.626;55.886;2023-09-19T07:41:59;74374.38;;;-145.10;94.18
56334;BME280;42240;53.626;55.886;2023-09-19T07:43:33;74380.28;;;-145.10;96.81
56334;BME280;42240;53.626;55.886;2023-09-19T07:45:08;74417.84;;;-145.10;94.34
56334;BME280;42240;53.626;55.886;2023-09-19T07:46:41;74376.34;;;-145.10;93.32
56334;BME280;42240;53.626;55.886;2023-09-19T07:48:14;74311.13;;;-145.10;95.95
56334;BME280;42240;53.626;55.886;2023-09-19T07:49:47;74342.75;;;-145.10;90.03
56334;BME280;42240;53.626;55.886;2023-09-19T07:51:21;74368.44;;;-145.10;92.44
56334;BME280;42240;53.626;55.886;2023-09-19T07:52:54;74378.31;;;-145.10;95.29
56334;BME280;42240;53.626;55.886;2023-09-19T07:54:28;74334.84;;;-145.10;92.84
56334;BME280;42240;53.626;55.886;2023-09-19T07:56:07;74382.28;;;-145.10;91.12
56334;BME280;42240;53.626;55.886;2023-09-19T07:57:41;74342.75;;;-145.10;93.02
56334;BME280;42240;53.626;55.886;2023-09-19T07:59:15;74364.50;;;-145.10;92.87
56334;BME280;42240;53.626;55.886;2023-09-19T08:00:49;74382.28;;;-145.10;92.26
56334;BME280;42240;53.626;55.886;2023-09-19T08:02:22;74354.59;;;-145.10;93.60
56334;BME280;42240;53.626;55.886;2023-09-19T08:03:55;74307.19;;;-145.10;90.64
56334;BME280;42240;53.626;55.886;2023-09-19T08:05:29;74299.28;;;-145.10;92.54
56334;BME280;42240;53.626;55.886;2023-09-19T08:07:02;74366.47;;;-145.10;93.67
56334;BME280;42240;53.626;55.886;2023-09-19T08:08:37;74396.09;;;-145.10;94.68
56334;BME280;42240;53.626;55.886;2023-09-19T08:10:10;74445.50;;;-145.10;97.89
56334;BME280;42240;53.626;55.886;2023-09-19T08:11:48;74552.25;;;-145.10;100.00
56334;BME280;42240;53.626;55.886;2023-09-19T08:13:24;74575.97;;;-145.10;100.00